Aeroporto :







RITROVATECI SU...

 
LOGIN :

Iscrizione | Disclaimer

   EN    FR    IT 

 









Sommario :    VFR   VFR Marginale   IFR   IFR Intensivo   IFR Molto Intensivo
Visibilità : 
Base nubi : 
>= 8 km
>= 3000ft
5 / 8 km
1000 / 3000 ft
1500m / 5 km
500 / 1000 ft
800 / 1500m
200 / 500 ft
< 800m
< 200 ft
Simboli :   Temporali  Nebbia  Neve Forte  Precipitazioni Forti  Vento > 20 kt






- Altitudine del aeroporto : 48 ft
- Codice IATA : REK


BIRK - Reykjavik

ULTIMO METAR :
  • 220700Z 08008KT 9999 FEW019 BKN040 06/04 Q1002

METARs OBSOLETI :
  • 220600Z 07006KT 9999 FEW017 SCT024 BKN065 06/04 Q1001
  • 220500Z 05007KT 9999 FEW012 SCT032 BKN064 06/04 Q1001
  • 220400Z 12009KT 9999 FEW025 SCT040 07/04 Q1001

TAF TAF BIRK
Valido dal 22 a 06 ore il 23 a 06 ore UTC


220442Z 2206/2306 12007KT 9999 -SHRA SCT025 BKN035 TX07/2215Z TN03/2303Z
PROB40
TEMPO 2206/2300 5000 SHRA BKN013



MetMap, La meteo Aeronautica in un colpo d'occhio ! - Copyright ORBIFLY Dicembre 2007 - Disclaimer

ORBIFLY MET'MAP TEAM :

Programmazione e sviluppo : Alexandra Zaïnal
Concezione e sviluppo : Baudouin d'Aumeries
Co-Programmazione e sviluppo : Marc-Olivier Méhu
Supporto tecnico e logistico : Manuel Goepfert
Aiuto per la traduzione : Arnaldo La Scala

Contatto : metmap@orbifly.com




FONTI E CREDITI :

   NOAA